sensor_id;sensor_type;location;lat;lon;timestamp;pressure;altitude;pressure_sealevel;temperature;humidity
76611;BME280;65503;48.534;9.062;2023-02-11T00:00:15;98908.03;;;-0.53;66.14
76611;BME280;65503;48.534;9.062;2023-02-11T00:02:42;98918.13;;;-0.50;65.51
76611;BME280;65503;48.534;9.062;2023-02-11T00:05:12;98907.78;;;-0.50;66.62
76611;BME280;65503;48.534;9.062;2023-02-11T00:07:39;98915.91;;;-0.44;68.58
76611;BME280;65503;48.534;9.062;2023-02-11T00:10:06;98914.91;;;-0.30;67.18
76611;BME280;65503;48.534;9.062;2023-02-11T00:12:34;98916.09;;;-0.23;66.31
76611;BME280;65503;48.534;9.062;2023-02-11T00:15:02;98913.28;;;-0.31;65.91
76611;BME280;65503;48.534;9.062;2023-02-11T00:17:28;98918.31;;;-0.40;65.43
76611;BME280;65503;48.534;9.062;2023-02-11T00:19:55;98924.34;;;-0.53;65.51
76611;BME280;65503;48.534;9.062;2023-02-11T00:22:21;98923.25;;;-0.61;65.82
76611;BME280;65503;48.534;9.062;2023-02-11T00:24:48;98912.28;;;-0.76;65.94
76611;BME280;65503;48.534;9.062;2023-02-11T00:27:14;98915.78;;;-0.77;65.70
76611;BME280;65503;48.534;9.062;2023-02-11T00:29:41;98915.63;;;-0.87;66.18
76611;BME280;65503;48.534;9.062;2023-02-11T00:32:08;98915.66;;;-0.99;66.86
76611;BME280;65503;48.534;9.062;2023-02-11T00:34:35;98923.94;;;-1.07;66.87
76611;BME280;65503;48.534;9.062;2023-02-11T00:37:02;98929.53;;;-1.13;66.39
76611;BME280;65503;48.534;9.062;2023-02-11T00:39:29;98931.53;;;-1.16;66.63
76611;BME280;65503;48.534;9.062;2023-02-11T00:41:56;98926.88;;;-1.24;67.40
76611;BME280;65503;48.534;9.062;2023-02-11T00:44:22;98924.03;;;-1.32;67.63
76611;BME280;65503;48.534;9.062;2023-02-11T00:46:49;98924.44;;;-1.38;67.16
76611;BME280;65503;48.534;9.062;2023-02-11T00:49:16;98920.31;;;-1.41;67.02
76611;BME280;65503;48.534;9.062;2023-02-11T00:51:42;98920.53;;;-1.44;67.11
76611;BME280;65503;48.534;9.062;2023-02-11T00:54:09;98922.63;;;-1.61;70.34
76611;BME280;65503;48.534;9.062;2023-02-11T00:56:35;98920.47;;;-1.68;70.60
76611;BME280;65503;48.534;9.062;2023-02-11T00:59:02;98916.03;;;-1.65;71.35
76611;BME280;65503;48.534;9.062;2023-02-11T01:01:29;98908.31;;;-1.29;69.83
76611;BME280;65503;48.534;9.062;2023-02-11T01:03:55;98907.03;;;-1.11;68.50
76611;BME280;65503;48.534;9.062;2023-02-11T01:06:22;98908.25;;;-1.04;68.66
76611;BME280;65503;48.534;9.062;2023-02-11T01:08:48;98906.38;;;-1.02;67.52
76611;BME280;65503;48.534;9.062;2023-02-11T01:11:18;98911.03;;;-1.07;67.85
76611;BME280;65503;48.534;9.062;2023-02-11T01:13:47;98900.88;;;-1.21;68.54
76611;BME280;65503;48.534;9.062;2023-02-11T01:16:14;98898.22;;;-1.32;69.43
76611;BME280;65503;48.534;9.062;2023-02-11T01:18:41;98895.69;;;-1.21;68.83
76611;BME280;65503;48.534;9.062;2023-02-11T01:21:09;98900.00;;;-1.09;68.09
76611;BME280;65503;48.534;9.062;2023-02-11T01:23:36;98887.59;;;-1.04;67.86
76611;BME280;65503;48.534;9.062;2023-02-11T01:26:03;98888.41;;;-1.03;66.99
76611;BME280;65503;48.534;9.062;2023-02-11T01:28:31;98887.78;;;-1.07;67.05
76611;BME280;65503;48.534;9.062;2023-02-11T01:30:59;98881.41;;;-1.14;66.84
76611;BME280;65503;48.534;9.062;2023-02-11T01:33:26;98892.19;;;-1.20;67.65
76611;BME280;65503;48.534;9.062;2023-02-11T01:35:53;98890.97;;;-1.27;68.97
76611;BME280;65503;48.534;9.062;2023-02-11T01:38:24;98878.56;;;-1.22;67.87
76611;BME280;65503;48.534;9.062;2023-02-11T01:41:00;98882.28;;;-1.26;67.45
76611;BME280;65503;48.534;9.062;2023-02-11T01:43:30;98877.19;;;-1.51;69.18
76611;BME280;65503;48.534;9.062;2023-02-11T01:46:31;98879.59;;;-1.74;70.62
76611;BME280;65503;48.534;9.062;2023-02-11T01:49:03;98874.69;;;-1.40;69.52
76611;BME280;65503;48.534;9.062;2023-02-11T01:54:21;98863.50;;;-1.28;69.29
76611;BME280;65503;48.534;9.062;2023-02-11T01:57:12;98862.69;;;-1.41;70.06
76611;BME280;65503;48.534;9.062;2023-02-11T02:02:59;98852.69;;;-1.09;68.21
76611;BME280;65503;48.534;9.062;2023-02-11T02:05:35;98845.03;;;-1.11;68.57
76611;BME280;65503;48.534;9.062;2023-02-11T02:08:10;98845.97;;;-1.12;68.22
76611;BME280;65503;48.534;9.062;2023-02-11T02:10:43;98840.09;;;-1.14;67.87
76611;BME280;65503;48.534;9.062;2023-02-11T02:13:11;98838.91;;;-1.21;67.59
76611;BME280;65503;48.534;9.062;2023-02-11T02:15:40;98842.59;;;-1.25;67.59
76611;BME280;65503;48.534;9.062;2023-02-11T02:27:04;98833.22;;;-1.50;68.30
76611;BME280;65503;48.534;9.062;2023-02-11T02:40:51;98829.06;;;-1.52;68.35
76611;BME280;65503;48.534;9.062;2023-02-11T02:43:20;98824.03;;;-1.54;68.99
76611;BME280;65503;48.534;9.062;2023-02-11T02:45:48;98817.09;;;-1.53;68.91
76611;BME280;65503;48.534;9.062;2023-02-11T02:48:24;98816.66;;;-1.47;69.16
76611;BME280;65503;48.534;9.062;2023-02-11T02:54:06;98821.41;;;-1.41;68.56
76611;BME280;65503;48.534;9.062;2023-02-11T02:59:26;98804.91;;;-1.51;69.14
76611;BME280;65503;48.534;9.062;2023-02-11T03:04:52;98810.16;;;-1.77;70.75
76611;BME280;65503;48.534;9.062;2023-02-11T03:07:38;98801.63;;;-1.53;69.85
76611;BME280;65503;48.534;9.062;2023-02-11T03:10:16;98804.25;;;-1.42;68.70
76611;BME280;65503;48.534;9.062;2023-02-11T03:12:45;98800.53;;;-1.38;68.02
76611;BME280;65503;48.534;9.062;2023-02-11T03:15:14;98802.63;;;-1.43;68.73
76611;BME280;65503;48.534;9.062;2023-02-11T03:17:47;98804.72;;;-1.48;68.66
76611;BME280;65503;48.534;9.062;2023-02-11T03:20:17;98806.56;;;-1.50;68.43
76611;BME280;65503;48.534;9.062;2023-02-11T03:25:14;98809.66;;;-1.45;68.07
76611;BME280;65503;48.534;9.062;2023-02-11T03:30:38;98794.44;;;-1.61;68.83
76611;BME280;65503;48.534;9.062;2023-02-11T03:33:16;98802.94;;;-1.72;70.09
76611;BME280;65503;48.534;9.062;2023-02-11T03:35:49;98793.38;;;-1.58;69.45
76611;BME280;65503;48.534;9.062;2023-02-11T03:38:23;98783.78;;;-1.56;69.16
76611;BME280;65503;48.534;9.062;2023-02-11T03:40:51;98789.44;;;-1.51;69.75
76611;BME280;65503;48.534;9.062;2023-02-11T03:43:25;98790.09;;;-1.60;70.59
76611;BME280;65503;48.534;9.062;2023-02-11T03:45:54;98792.00;;;-1.51;70.61
76611;BME280;65503;48.534;9.062;2023-02-11T03:48:26;98791.88;;;-1.37;69.43
76611;BME280;65503;48.534;9.062;2023-02-11T03:50:55;98808.13;;;-1.24;69.08
76611;BME280;65503;48.534;9.062;2023-02-11T03:53:23;98810.50;;;-1.21;68.48
76611;BME280;65503;48.534;9.062;2023-02-11T03:55:51;98816.00;;;-1.26;68.15
76611;BME280;65503;48.534;9.062;2023-02-11T03:58:19;98820.03;;;-1.34;68.14
76611;BME280;65503;48.534;9.062;2023-02-11T04:00:46;98817.06;;;-1.41;68.01
76611;BME280;65503;48.534;9.062;2023-02-11T04:03:12;98813.38;;;-1.49;68.66
76611;BME280;65503;48.534;9.062;2023-02-11T04:05:39;98802.78;;;-1.57;69.34
76611;BME280;65503;48.534;9.062;2023-02-11T04:08:06;98807.00;;;-1.56;70.29
76611;BME280;65503;48.534;9.062;2023-02-11T04:10:33;98805.34;;;-1.57;70.28
76611;BME280;65503;48.534;9.062;2023-02-11T04:13:00;98806.22;;;-1.70;70.59
76611;BME280;65503;48.534;9.062;2023-02-11T04:15:26;98813.28;;;-2.10;71.92
76611;BME280;65503;48.534;9.062;2023-02-11T04:17:53;98808.94;;;-1.84;72.33
76611;BME280;65503;48.534;9.062;2023-02-11T04:20:19;98813.59;;;-1.52;71.62
76611;BME280;65503;48.534;9.062;2023-02-11T04:22:46;98812.09;;;-1.31;70.29
76611;BME280;65503;48.534;9.062;2023-02-11T04:25:12;98814.72;;;-1.20;69.45
76611;BME280;65503;48.534;9.062;2023-02-11T04:27:39;98820.09;;;-1.23;69.22
76611;BME280;65503;48.534;9.062;2023-02-11T04:30:06;98806.75;;;-1.17;69.43
76611;BME280;65503;48.534;9.062;2023-02-11T04:32:33;98803.44;;;-1.19;68.50
76611;BME280;65503;48.534;9.062;2023-02-11T04:34:59;98803.94;;;-1.14;68.81
76611;BME280;65503;48.534;9.062;2023-02-11T04:37:26;98810.03;;;-1.39;68.94
76611;BME280;65503;48.534;9.062;2023-02-11T04:39:52;98815.09;;;-1.13;69.20
76611;BME280;65503;48.534;9.062;2023-02-11T04:42:19;98830.09;;;-0.95;68.44
76611;BME280;65503;48.534;9.062;2023-02-11T04:44:46;98824.84;;;-0.82;67.41
76611;BME280;65503;48.534;9.062;2023-02-11T04:47:12;98823.75;;;-0.91;67.10
76611;BME280;65503;48.534;9.062;2023-02-11T04:49:41;98825.16;;;-0.98;67.60
76611;BME280;65503;48.534;9.062;2023-02-11T04:52:07;98823.06;;;-0.93;68.28
76611;BME280;65503;48.534;9.062;2023-02-11T04:54:34;98823.22;;;-0.83;68.22
76611;BME280;65503;48.534;9.062;2023-02-11T04:57:01;98814.22;;;-0.66;67.86
76611;BME280;65503;48.534;9.062;2023-02-11T04:59:27;98821.34;;;-0.46;67.99
76611;BME280;65503;48.534;9.062;2023-02-11T05:01:54;98813.81;;;-0.38;67.82
76611;BME280;65503;48.534;9.062;2023-02-11T05:04:21;98816.66;;;-0.30;66.95
76611;BME280;65503;48.534;9.062;2023-02-11T05:06:47;98817.59;;;-0.31;66.68
76611;BME280;65503;48.534;9.062;2023-02-11T05:09:14;98808.91;;;-0.19;66.96
76611;BME280;65503;48.534;9.062;2023-02-11T05:11:42;98806.31;;;-0.08;67.36
76611;BME280;65503;48.534;9.062;2023-02-11T05:14:08;98804.56;;;0.04;67.47
76611;BME280;65503;48.534;9.062;2023-02-11T05:16:35;98806.06;;;0.07;66.94
76611;BME280;65503;48.534;9.062;2023-02-11T05:19:01;98805.03;;;0.09;66.72
76611;BME280;65503;48.534;9.062;2023-02-11T05:21:28;98793.03;;;0.08;65.98
76611;BME280;65503;48.534;9.062;2023-02-11T05:23:55;98789.16;;;0.03;65.36
76611;BME280;65503;48.534;9.062;2023-02-11T05:26:22;98793.50;;;0.13;66.35
76611;BME280;65503;48.534;9.062;2023-02-11T05:28:48;98790.31;;;0.21;65.71
76611;BME280;65503;48.534;9.062;2023-02-11T05:31:15;98791.97;;;0.22;65.81
76611;BME280;65503;48.534;9.062;2023-02-11T05:33:42;98792.19;;;0.30;65.89
76611;BME280;65503;48.534;9.062;2023-02-11T05:36:10;98784.31;;;0.31;64.83
76611;BME280;65503;48.534;9.062;2023-02-11T05:38:37;98775.16;;;0.27;65.14
76611;BME280;65503;48.534;9.062;2023-02-11T05:41:05;98777.09;;;0.35;65.74
76611;BME280;65503;48.534;9.062;2023-02-11T05:43:32;98769.75;;;0.08;64.61
76611;BME280;65503;48.534;9.062;2023-02-11T05:46:00;98759.97;;;0.00;65.18
76611;BME280;65503;48.534;9.062;2023-02-11T05:48:27;98755.78;;;-0.12;65.72
76611;BME280;65503;48.534;9.062;2023-02-11T05:50:54;98752.91;;;0.14;65.41
76611;BME280;65503;48.534;9.062;2023-02-11T05:53:20;98755.25;;;0.28;65.27
76611;BME280;65503;48.534;9.062;2023-02-11T05:55:47;98745.41;;;0.11;65.05
76611;BME280;65503;48.534;9.062;2023-02-11T05:58:13;98742.56;;;0.14;64.49
76611;BME280;65503;48.534;9.062;2023-02-11T06:00:40;98744.25;;;-0.41;67.50
76611;BME280;65503;48.534;9.062;2023-02-11T06:03:07;98745.53;;;-0.35;66.31
76611;BME280;65503;48.534;9.062;2023-02-11T06:05:33;98725.44;;;-0.43;67.17
76611;BME280;65503;48.534;9.062;2023-02-11T06:08:00;98717.94;;;-1.03;70.05
76611;BME280;65503;48.534;9.062;2023-02-11T06:10:26;98733.63;;;-0.71;69.56
76611;BME280;65503;48.534;9.062;2023-02-11T06:12:53;98735.16;;;0.09;66.66
76611;BME280;65503;48.534;9.062;2023-02-11T06:15:19;98755.44;;;0.47;65.14
76611;BME280;65503;48.534;9.062;2023-02-11T06:17:46;98762.31;;;0.69;63.97
76611;BME280;65503;48.534;9.062;2023-02-11T06:20:12;98755.59;;;0.77;63.34
76611;BME280;65503;48.534;9.062;2023-02-11T06:22:39;98753.22;;;0.74;63.22
76611;BME280;65503;48.534;9.062;2023-02-11T06:25:06;98735.84;;;0.65;62.85
76611;BME280;65503;48.534;9.062;2023-02-11T06:27:32;98738.22;;;0.57;63.77
76611;BME280;65503;48.534;9.062;2023-02-11T06:29:59;98752.09;;;0.67;63.67
76611;BME280;65503;48.534;9.062;2023-02-11T06:32:26;98757.41;;;0.87;63.14
76611;BME280;65503;48.534;9.062;2023-02-11T06:35:09;98780.19;;;1.04;62.97
76611;BME280;65503;48.534;9.062;2023-02-11T06:37:37;98775.44;;;0.88;62.56
76611;BME280;65503;48.534;9.062;2023-02-11T06:40:04;98781.44;;;0.89;62.80
76611;BME280;65503;48.534;9.062;2023-02-11T06:42:31;98777.31;;;0.86;62.77
76611;BME280;65503;48.534;9.062;2023-02-11T06:44:57;98770.22;;;0.99;62.82
76611;BME280;65503;48.534;9.062;2023-02-11T06:47:24;98772.88;;;1.09;62.64
76611;BME280;65503;48.534;9.062;2023-02-11T06:49:51;98788.69;;;1.06;62.82
76611;BME280;65503;48.534;9.062;2023-02-11T06:52:17;98781.63;;;1.08;62.70
76611;BME280;65503;48.534;9.062;2023-02-11T06:54:44;98777.81;;;1.12;62.34
76611;BME280;65503;48.534;9.062;2023-02-11T06:57:10;98792.50;;;1.22;62.52
76611;BME280;65503;48.534;9.062;2023-02-11T06:59:36;98780.19;;;1.36;62.30
76611;BME280;65503;48.534;9.062;2023-02-11T07:02:03;98785.53;;;1.44;62.13
76611;BME280;65503;48.534;9.062;2023-02-11T07:04:30;98771.25;;;1.29;61.86
76611;BME280;65503;48.534;9.062;2023-02-11T07:06:56;98779.97;;;1.48;61.44
76611;BME280;65503;48.534;9.062;2023-02-11T07:09:23;98790.81;;;1.53;61.37
76611;BME280;65503;48.534;9.062;2023-02-11T07:11:49;98789.72;;;1.56;61.46
76611;BME280;65503;48.534;9.062;2023-02-11T07:14:16;98797.38;;;1.57;61.49
76611;BME280;65503;48.534;9.062;2023-02-11T07:16:43;98796.16;;;1.61;61.57
76611;BME280;65503;48.534;9.062;2023-02-11T07:19:09;98797.38;;;1.57;61.43
76611;BME280;65503;48.534;9.062;2023-02-11T07:21:36;98797.81;;;1.62;61.17
76611;BME280;65503;48.534;9.062;2023-02-11T07:24:06;98798.50;;;1.44;61.43
76611;BME280;65503;48.534;9.062;2023-02-11T07:26:36;98800.69;;;1.07;63.57
76611;BME280;65503;48.534;9.062;2023-02-11T07:29:03;98802.56;;;1.37;63.09
76611;BME280;65503;48.534;9.062;2023-02-11T07:31:30;98800.47;;;1.51;62.59
76611;BME280;65503;48.534;9.062;2023-02-11T07:34:00;98799.44;;;1.63;62.00
76611;BME280;65503;48.534;9.062;2023-02-11T07:36:28;98794.34;;;1.83;61.05
76611;BME280;65503;48.534;9.062;2023-02-11T07:38:55;98792.16;;;1.78;61.28
76611;BME280;65503;48.534;9.062;2023-02-11T07:41:23;98792.81;;;2.01;60.71
76611;BME280;65503;48.534;9.062;2023-02-11T07:43:50;98779.72;;;2.12;60.71
76611;BME280;65503;48.534;9.062;2023-02-11T07:46:22;98777.91;;;2.33;59.92
76611;BME280;65503;48.534;9.062;2023-02-11T07:48:49;98777.09;;;2.52;59.14
76611;BME280;65503;48.534;9.062;2023-02-11T07:51:24;98787.78;;;2.59;59.38
76611;BME280;65503;48.534;9.062;2023-02-11T07:53:52;98787.53;;;2.62;58.76
76611;BME280;65503;48.534;9.062;2023-02-11T07:56:19;98788.63;;;2.69;58.85
76611;BME280;65503;48.534;9.062;2023-02-11T07:58:46;98803.28;;;2.89;57.95
76611;BME280;65503;48.534;9.062;2023-02-11T08:01:22;98816.31;;;3.18;57.17
76611;BME280;65503;48.534;9.062;2023-02-11T08:03:51;98814.91;;;3.52;57.20
76611;BME280;65503;48.534;9.062;2023-02-11T08:06:20;98811.00;;;3.85;55.41
76611;BME280;65503;48.534;9.062;2023-02-11T08:08:47;98799.69;;;4.13;54.51
76611;BME280;65503;48.534;9.062;2023-02-11T08:11:16;98788.56;;;4.39;53.10
76611;BME280;65503;48.534;9.062;2023-02-11T08:13:44;98788.78;;;4.55;53.86
76611;BME280;65503;48.534;9.062;2023-02-11T08:16:25;98789.69;;;6.04;50.68
76611;BME280;65503;48.534;9.062;2023-02-11T08:18:54;98785.25;;;8.41;44.50
76611;BME280;65503;48.534;9.062;2023-02-11T08:21:21;98774.31;;;7.66;45.28
76611;BME280;65503;48.534;9.062;2023-02-11T08:23:47;98780.44;;;8.05;45.03
76611;BME280;65503;48.534;9.062;2023-02-11T08:26:23;98788.13;;;9.53;42.00
76611;BME280;65503;48.534;9.062;2023-02-11T08:28:51;98782.72;;;11.08;37.97
76611;BME280;65503;48.534;9.062;2023-02-11T08:31:19;98773.91;;;12.68;34.49
76611;BME280;65503;48.534;9.062;2023-02-11T08:33:46;98773.47;;;12.58;33.65
76611;BME280;65503;48.534;9.062;2023-02-11T08:36:16;98776.91;;;13.98;31.99
76611;BME280;65503;48.534;9.062;2023-02-11T08:38:43;98774.53;;;15.61;29.38
76611;BME280;65503;48.534;9.062;2023-02-11T08:41:10;98774.63;;;15.98;27.71
76611;BME280;65503;48.534;9.062;2023-02-11T08:43:43;98777.03;;;15.56;28.45
76611;BME280;65503;48.534;9.062;2023-02-11T08:46:13;98788.03;;;16.03;27.78
76611;BME280;65503;48.534;9.062;2023-02-11T08:48:40;98789.06;;;16.93;26.99
76611;BME280;65503;48.534;9.062;2023-02-11T08:51:08;98803.22;;;18.11;24.44
76611;BME280;65503;48.534;9.062;2023-02-11T08:53:36;98805.72;;;18.53;24.43
76611;BME280;65503;48.534;9.062;2023-02-11T08:56:02;98811.25;;;20.43;22.36
76611;BME280;65503;48.534;9.062;2023-02-11T08:58:29;98816.63;;;21.14;20.51
76611;BME280;65503;48.534;9.062;2023-02-11T09:00:55;98810.25;;;18.64;23.97
76611;BME280;65503;48.534;9.062;2023-02-11T09:03:22;98805.03;;;16.20;26.42
76611;BME280;65503;48.534;9.062;2023-02-11T09:05:49;98795.19;;;14.26;30.03
76611;BME280;65503;48.534;9.062;2023-02-11T09:08:19;98795.31;;;12.38;33.22
76611;BME280;65503;48.534;9.062;2023-02-11T09:10:46;98787.50;;;13.52;31.78
76611;BME280;65503;48.534;9.062;2023-02-11T09:13:13;98785.06;;;12.22;33.61
76611;BME280;65503;48.534;9.062;2023-02-11T09:15:44;98783.63;;;11.15;35.71
76611;BME280;65503;48.534;9.062;2023-02-11T09:18:10;98782.78;;;9.99;38.16
76611;BME280;65503;48.534;9.062;2023-02-11T09:20:37;98778.94;;;11.59;35.27
76611;BME280;65503;48.534;9.062;2023-02-11T09:23:04;98773.78;;;11.73;35.95
76611;BME280;65503;48.534;9.062;2023-02-11T09:25:30;98775.38;;;14.93;30.25
76611;BME280;65503;48.534;9.062;2023-02-11T09:27:57;98782.09;;;17.52;26.45
76611;BME280;65503;48.534;9.062;2023-02-11T09:30:23;98773.78;;;15.54;27.46
76611;BME280;65503;48.534;9.062;2023-02-11T09:32:50;98781.31;;;17.21;26.10
76611;BME280;65503;48.534;9.062;2023-02-11T09:35:16;98785.72;;;17.27;25.61
76611;BME280;65503;48.534;9.062;2023-02-11T09:37:43;98786.69;;;18.84;24.88
76611;BME280;65503;48.534;9.062;2023-02-11T09:40:10;98786.34;;;19.54;23.31
76611;BME280;65503;48.534;9.062;2023-02-11T09:42:58;98788.50;;;18.95;23.27
76611;BME280;65503;48.534;9.062;2023-02-11T09:45:29;98792.72;;;20.20;21.70
76611;BME280;65503;48.534;9.062;2023-02-11T09:48:19;98797.47;;;21.54;20.36
76611;BME280;65503;48.534;9.062;2023-02-11T09:50:58;98794.97;;;20.67;21.88
76611;BME280;65503;48.534;9.062;2023-02-11T09:53:27;98785.06;;;19.12;23.89
76611;BME280;65503;48.534;9.062;2023-02-11T09:55:58;98789.19;;;18.39;24.66
76611;BME280;65503;48.534;9.062;2023-02-11T09:58:27;98779.97;;;17.30;26.09
76611;BME280;65503;48.534;9.062;2023-02-11T10:04:00;98767.78;;;16.27;27.80
76611;BME280;65503;48.534;9.062;2023-02-11T10:06:34;98773.06;;;15.34;29.62
76611;BME280;65503;48.534;9.062;2023-02-11T10:09:29;98773.84;;;15.91;28.03
76611;BME280;65503;48.534;9.062;2023-02-11T10:22:38;98773.19;;;11.49;35.26
76611;BME280;65503;48.534;9.062;2023-02-11T10:25:26;98771.97;;;11.52;36.19
76611;BME280;65503;48.534;9.062;2023-02-11T10:27:56;98772.38;;;10.20;38.67
76611;BME280;65503;48.534;9.062;2023-02-11T10:30:36;98765.84;;;9.49;40.03
76611;BME280;65503;48.534;9.062;2023-02-11T10:35:40;98763.34;;;6.97;46.65
76611;BME280;65503;48.534;9.062;2023-02-11T10:38:10;98763.78;;;8.76;43.14
76611;BME280;65503;48.534;9.062;2023-02-11T10:40:37;98760.00;;;9.62;40.95
76611;BME280;65503;48.534;9.062;2023-02-11T10:43:10;98757.13;;;9.11;42.30
76611;BME280;65503;48.534;9.062;2023-02-11T10:45:49;98749.78;;;7.51;47.05
76611;BME280;65503;48.534;9.062;2023-02-11T10:48:46;98745.44;;;9.13;43.03
76611;BME280;65503;48.534;9.062;2023-02-11T10:51:20;98751.72;;;9.50;42.66
76611;BME280;65503;48.534;9.062;2023-02-11T10:56:33;98748.47;;;10.87;39.46
76611;BME280;65503;48.534;9.062;2023-02-11T11:01:56;98724.13;;;10.63;40.22
76611;BME280;65503;48.534;9.062;2023-02-11T11:04:33;98724.91;;;9.99;41.55
76611;BME280;65503;48.534;9.062;2023-02-11T11:07:12;98716.84;;;11.29;40.90
76611;BME280;65503;48.534;9.062;2023-02-11T11:12:30;98735.06;;;8.97;44.80
76611;BME280;65503;48.534;9.062;2023-02-11T11:15:01;98714.91;;;10.38;41.91
76611;BME280;65503;48.534;9.062;2023-02-11T11:17:28;98717.59;;;9.79;42.30
76611;BME280;65503;48.534;9.062;2023-02-11T11:20:21;98718.34;;;10.53;41.44
76611;BME280;65503;48.534;9.062;2023-02-11T11:22:50;98708.97;;;9.71;42.95
76611;BME280;65503;48.534;9.062;2023-02-11T11:25:26;98700.06;;;8.37;47.18
76611;BME280;65503;48.534;9.062;2023-02-11T11:27:56;98713.00;;;9.06;45.96
76611;BME280;65503;48.534;9.062;2023-02-11T11:30:30;98712.88;;;9.23;44.81
76611;BME280;65503;48.534;9.062;2023-02-11T11:32:58;98709.66;;;10.38;42.31
76611;BME280;65503;48.534;9.062;2023-02-11T11:35:27;98708.28;;;10.78;41.45
76611;BME280;65503;48.534;9.062;2023-02-11T11:38:00;98719.66;;;11.49;39.50
76611;BME280;65503;48.534;9.062;2023-02-11T11:40:29;98715.09;;;11.36;39.93
76611;BME280;65503;48.534;9.062;2023-02-11T11:45:38;98710.22;;;11.33;41.29
76611;BME280;65503;48.534;9.062;2023-02-11T11:50:53;98702.28;;;11.61;38.87
76611;BME280;65503;48.534;9.062;2023-02-11T11:53:40;98703.81;;;10.57;41.40
76611;BME280;65503;48.534;9.062;2023-02-11T11:56:17;98708.56;;;11.11;41.48
76611;BME280;65503;48.534;9.062;2023-02-11T11:58:45;98700.72;;;12.01;39.02
76611;BME280;65503;48.534;9.062;2023-02-11T12:07:05;98696.31;;;12.82;36.51
76611;BME280;65503;48.534;9.062;2023-02-11T12:18:01;98676.69;;;12.24;38.27
76611;BME280;65503;48.534;9.062;2023-02-11T12:20:42;98677.69;;;13.30;36.30
76611;BME280;65503;48.534;9.062;2023-02-11T12:23:23;98687.19;;;12.91;37.50
76611;BME280;65503;48.534;9.062;2023-02-11T12:39:19;98682.16;;;14.64;33.09
76611;BME280;65503;48.534;9.062;2023-02-11T12:42:13;98676.63;;;14.28;33.45
76611;BME280;65503;48.534;9.062;2023-02-11T12:45:12;98676.00;;;13.61;34.86
76611;BME280;65503;48.534;9.062;2023-02-11T12:50:53;98670.00;;;11.87;38.98
76611;BME280;65503;48.534;9.062;2023-02-11T12:59:07;98673.13;;;15.28;33.04
76611;BME280;65503;48.534;9.062;2023-02-11T13:01:41;98668.53;;;15.85;30.54
76611;BME280;65503;48.534;9.062;2023-02-11T13:04:29;98666.00;;;13.77;33.69
76611;BME280;65503;48.534;9.062;2023-02-11T13:07:02;98667.25;;;15.26;32.29
76611;BME280;65503;48.534;9.062;2023-02-11T13:09:37;98663.84;;;15.19;32.06
76611;BME280;65503;48.534;9.062;2023-02-11T13:12:09;98659.81;;;15.10;32.06
76611;BME280;65503;48.534;9.062;2023-02-11T13:14:58;98655.47;;;14.97;32.71
76611;BME280;65503;48.534;9.062;2023-02-11T13:17:36;98655.47;;;15.40;31.94
76611;BME280;65503;48.534;9.062;2023-02-11T13:29:05;98644.72;;;15.60;31.43
76611;BME280;65503;48.534;9.062;2023-02-11T13:31:35;98656.88;;;15.67;32.36
76611;BME280;65503;48.534;9.062;2023-02-11T13:34:02;98648.75;;;15.62;31.62
76611;BME280;65503;48.534;9.062;2023-02-11T13:36:30;98643.84;;;15.41;30.75
76611;BME280;65503;48.534;9.062;2023-02-11T13:39:04;98641.25;;;15.10;32.22
76611;BME280;65503;48.534;9.062;2023-02-11T13:41:34;98640.47;;;14.84;32.09
76611;BME280;65503;48.534;9.062;2023-02-11T13:44:22;98637.88;;;14.71;33.55
76611;BME280;65503;48.534;9.062;2023-02-11T13:49:29;98628.53;;;14.31;33.32
76611;BME280;65503;48.534;9.062;2023-02-11T13:51:58;98634.13;;;14.10;33.83
76611;BME280;65503;48.534;9.062;2023-02-11T13:54:36;98631.63;;;14.21;34.47
76611;BME280;65503;48.534;9.062;2023-02-11T13:59:47;98645.63;;;14.35;33.89
76611;BME280;65503;48.534;9.062;2023-02-11T14:02:21;98647.72;;;14.20;34.15
76611;BME280;65503;48.534;9.062;2023-02-11T14:10:59;98642.06;;;14.10;34.18
76611;BME280;65503;48.534;9.062;2023-02-11T14:13:35;98641.63;;;14.13;34.31
76611;BME280;65503;48.534;9.062;2023-02-11T14:16:13;98635.94;;;14.16;34.33
76611;BME280;65503;48.534;9.062;2023-02-11T14:27:03;98618.56;;;13.88;34.39
76611;BME280;65503;48.534;9.062;2023-02-11T14:29:45;98621.84;;;13.77;34.85
76611;BME280;65503;48.534;9.062;2023-02-11T14:32:42;98625.56;;;13.50;35.68
76611;BME280;65503;48.534;9.062;2023-02-11T14:35:32;98623.16;;;13.22;36.11
76611;BME280;65503;48.534;9.062;2023-02-11T14:43:16;98637.34;;;12.49;37.32
76611;BME280;65503;48.534;9.062;2023-02-11T14:45:49;98632.63;;;12.37;37.62
76611;BME280;65503;48.534;9.062;2023-02-11T14:48:18;98629.19;;;12.37;37.46
76611;BME280;65503;48.534;9.062;2023-02-11T14:50:49;98623.06;;;12.23;37.98
76611;BME280;65503;48.534;9.062;2023-02-11T14:53:20;98636.84;;;12.12;38.23
76611;BME280;65503;48.534;9.062;2023-02-11T14:55:49;98630.31;;;12.08;37.75
76611;BME280;65503;48.534;9.062;2023-02-11T14:58:23;98630.31;;;12.08;37.92
76611;BME280;65503;48.534;9.062;2023-02-11T15:00:59;98634.44;;;12.24;36.98
76611;BME280;65503;48.534;9.062;2023-02-11T15:03:36;98632.78;;;12.16;37.19
76611;BME280;65503;48.534;9.062;2023-02-11T15:06:15;98634.00;;;12.20;37.73
76611;BME280;65503;48.534;9.062;2023-02-11T15:08:49;98636.88;;;12.25;37.50
76611;BME280;65503;48.534;9.062;2023-02-11T15:11:19;98642.13;;;12.25;38.81
76611;BME280;65503;48.534;9.062;2023-02-11T15:13:47;98639.00;;;11.95;39.99
76611;BME280;65503;48.534;9.062;2023-02-11T15:16:17;98642.81;;;11.86;40.43
76611;BME280;65503;48.534;9.062;2023-02-11T15:18:49;98645.19;;;11.75;40.88
76611;BME280;65503;48.534;9.062;2023-02-11T15:21:31;98654.91;;;11.74;40.78
76611;BME280;65503;48.534;9.062;2023-02-11T15:24:02;98650.59;;;11.67;41.12
76611;BME280;65503;48.534;9.062;2023-02-11T15:26:29;98652.47;;;11.45;41.70
76611;BME280;65503;48.534;9.062;2023-02-11T15:28:55;98660.84;;;11.48;41.80
76611;BME280;65503;48.534;9.062;2023-02-11T15:31:24;98654.69;;;11.41;41.69
76611;BME280;65503;48.534;9.062;2023-02-11T15:33:51;98663.22;;;11.43;41.82
76611;BME280;65503;48.534;9.062;2023-02-11T15:36:20;98667.16;;;11.26;42.23
76611;BME280;65503;48.534;9.062;2023-02-11T15:39:28;98667.28;;;11.18;42.24